createdAt,value
2023-11-24T00:02:50.874Z,85.55
2023-11-24T00:05:52.790Z,86.26
2023-11-24T00:08:54.645Z,86.08
2023-11-24T00:11:59.832Z,85.86
2023-11-24T00:15:05.136Z,86.04
2023-11-24T00:18:07.455Z,86.67
2023-11-24T00:21:10.494Z,86.59
2023-11-24T00:24:12.405Z,86.31
2023-11-24T00:27:14.385Z,87.00
2023-11-24T00:30:16.248Z,87.38
2023-11-24T00:33:21.283Z,87.13
2023-11-24T00:36:23.971Z,86.51
2023-11-24T00:39:25.882Z,87.70
2023-11-24T00:42:30.612Z,88.08
2023-11-24T00:45:32.524Z,87.13
2023-11-24T00:51:36.798Z,87.08
2023-11-24T00:54:38.791Z,87.27
2023-11-24T00:57:40.681Z,87.80
2023-11-24T01:00:42.674Z,87.75
2023-11-24T01:03:44.720Z,87.46
2023-11-24T01:06:46.721Z,88.53
2023-11-24T01:09:51.050Z,88.39
2023-11-24T01:12:52.969Z,87.91
2023-11-24T01:15:55.041Z,88.41
2023-11-24T01:18:57.704Z,87.23
2023-11-24T01:21:59.998Z,88.16
2023-11-24T01:25:03.004Z,87.12
2023-11-24T01:28:05.279Z,87.59
2023-11-24T01:31:07.361Z,87.50
2023-11-24T01:34:09.315Z,87.30
2023-11-24T01:37:11.352Z,87.79
2023-11-24T01:40:13.801Z,88.15
2023-11-24T01:43:17.138Z,87.20
2023-11-24T01:46:19.076Z,86.83
2023-11-24T01:49:22.084Z,87.04
2023-11-24T01:52:24.162Z,87.91
2023-11-24T01:55:27.437Z,88.32
2023-11-24T01:58:31.168Z,88.59
2023-11-24T02:01:35.104Z,88.33
2023-11-24T02:04:37.021Z,88.44
2023-11-24T02:07:39.771Z,89.10
2023-11-24T02:10:41.651Z,88.19
2023-11-24T02:13:43.566Z,88.42
2023-11-24T02:16:46.192Z,89.68
2023-11-24T02:19:48.166Z,90.07
2023-11-24T02:22:50.005Z,89.20
2023-11-24T02:25:51.864Z,89.51
2023-11-24T02:28:54.177Z,89.95
2023-11-24T02:31:56.121Z,89.67
2023-11-24T02:34:58.120Z,89.39
2023-11-24T02:38:00.147Z,90.29
2023-11-24T02:41:02.134Z,89.28
2023-11-24T02:44:04.215Z,90.17
2023-11-24T02:47:07.374Z,90.34
2023-11-24T02:50:09.434Z,89.42
2023-11-24T02:53:11.239Z,89.86
2023-11-24T02:56:13.894Z,89.18
2023-11-24T02:59:16.028Z,90.16
2023-11-24T03:02:18.030Z,90.29
2023-11-24T03:05:20.312Z,90.35
2023-11-24T03:08:22.799Z,90.19
2023-11-24T03:11:26.407Z,90.95
2023-11-24T03:14:29.771Z,90.98
2023-11-24T03:17:31.785Z,91.65
2023-11-24T03:20:34.115Z,91.59
2023-11-24T03:23:35.980Z,92.05
2023-11-24T03:26:37.839Z,91.86
2023-11-24T03:29:41.302Z,91.85
2023-11-24T03:32:43.170Z,92.24
2023-11-24T03:35:45.123Z,91.37
2023-11-24T03:38:46.924Z,91.37
2023-11-24T03:41:49.200Z,91.63
2023-11-24T03:44:50.983Z,91.08
2023-11-24T03:47:52.849Z,91.44
2023-11-24T03:50:54.790Z,91.37
2023-11-24T03:53:56.619Z,91.11
2023-11-24T03:56:58.625Z,91.38
2023-11-24T04:00:00.496Z,91.48
2023-11-24T04:03:03.062Z,91.08
2023-11-24T04:06:05.222Z,91.05
2023-11-24T04:09:07.477Z,90.89
2023-11-24T04:12:09.577Z,91.18
2023-11-24T04:15:12.263Z,90.52
2023-11-24T04:18:14.071Z,91.35
2023-11-24T04:21:17.271Z,91.36
2023-11-24T04:24:19.100Z,90.99
2023-11-24T04:27:20.932Z,90.95
2023-11-24T04:30:22.824Z,91.97
2023-11-24T04:33:24.678Z,91.54
2023-11-24T04:36:26.611Z,91.61
2023-11-24T04:39:28.650Z,91.34
2023-11-24T04:42:30.583Z,92.26
2023-11-24T04:45:32.667Z,91.88
2023-11-24T04:48:40.558Z,91.78
2023-11-24T04:51:42.593Z,91.56
2023-11-24T04:54:44.577Z,92.41
2023-11-24T04:57:51.127Z,92.39
2023-11-24T05:00:53.323Z,91.74
2023-11-24T05:03:56.514Z,92.24
2023-11-24T05:06:58.636Z,91.51
2023-11-24T05:10:00.565Z,92.25
2023-11-24T05:13:02.575Z,92.17
2023-11-24T05:16:04.840Z,91.90
2023-11-24T05:19:06.751Z,92.11
2023-11-24T05:22:08.590Z,91.25
2023-11-24T05:25:10.642Z,92.08
2023-11-24T05:28:12.803Z,91.66
2023-11-24T05:31:14.910Z,91.46
2023-11-24T05:34:16.880Z,92.28
2023-11-24T05:37:18.894Z,92.03
2023-11-24T05:40:20.812Z,92.50
2023-11-24T05:43:22.652Z,92.45
2023-11-24T05:46:24.685Z,92.69
2023-11-24T05:49:26.717Z,92.83
2023-11-24T05:52:28.616Z,93.54
2023-11-24T05:55:30.499Z,93.77
2023-11-24T05:58:32.706Z,93.11
2023-11-24T06:01:34.883Z,93.94
2023-11-24T06:04:36.875Z,93.37
2023-11-24T06:07:41.101Z,93.55
2023-11-24T06:10:42.952Z,94.27
2023-11-24T06:13:48.299Z,94.17
2023-11-24T06:16:50.147Z,94.51
2023-11-24T06:19:52.056Z,93.88
2023-11-24T06:22:53.886Z,93.94
2023-11-24T06:25:55.751Z,94.29
2023-11-24T06:28:57.635Z,94.06
2023-11-24T06:31:59.459Z,93.61
2023-11-24T06:35:01.347Z,92.42
2023-11-24T06:38:03.183Z,93.27
2023-11-24T06:41:07.313Z,92.80
2023-11-24T06:44:09.176Z,93.20
2023-11-24T06:47:11.574Z,92.85
2023-11-24T06:50:14.444Z,92.56
2023-11-24T06:53:16.444Z,93.10
2023-11-24T06:56:18.927Z,92.18
2023-11-24T06:59:20.825Z,92.15
2023-11-24T07:02:22.679Z,92.41
2023-11-24T07:05:24.786Z,91.79
2023-11-24T07:08:26.972Z,91.36
2023-11-24T07:11:28.949Z,91.26
2023-11-24T07:14:30.909Z,91.21
2023-11-24T07:17:32.774Z,90.96
2023-11-24T07:20:34.753Z,90.33
2023-11-24T07:23:39.681Z,88.60
2023-11-24T07:26:41.546Z,87.80
2023-11-24T07:29:43.842Z,87.53
2023-11-24T07:32:45.710Z,86.64
2023-11-24T07:35:47.555Z,86.43
2023-11-24T07:38:49.715Z,84.61
2023-11-24T07:41:51.612Z,84.98
2023-11-24T07:44:53.598Z,81.85
2023-11-24T07:47:55.525Z,81.86
2023-11-24T07:50:57.451Z,80.96
2023-11-24T07:53:59.302Z,81.50
2023-11-24T07:57:01.314Z,81.34
2023-11-24T08:00:05.299Z,80.12
2023-11-24T08:03:07.662Z,80.66
2023-11-24T08:06:09.632Z,80.14
2023-11-24T08:09:13.763Z,80.30
2023-11-24T08:12:15.673Z,79.48
2023-11-24T08:15:17.596Z,77.31
2023-11-24T08:18:19.444Z,76.46
2023-11-24T08:21:21.449Z,74.59
2023-11-24T08:24:23.343Z,66.72
2023-11-24T08:27:26.545Z,63.47
2023-11-24T08:30:28.377Z,58.18
2023-11-24T08:33:30.191Z,55.93
2023-11-24T08:36:32.949Z,56.22
2023-11-24T08:39:35.097Z,54.44
2023-11-24T08:42:37.037Z,53.87
2023-11-24T08:45:39.027Z,51.31
2023-11-24T08:48:42.179Z,51.95
2023-11-24T08:51:44.839Z,54.86
2023-11-24T08:54:47.219Z,55.98
2023-11-24T08:57:49.233Z,59.15
2023-11-24T09:00:51.299Z,59.28
2023-11-24T09:03:53.600Z,57.65
2023-11-24T09:06:55.628Z,58.04
2023-11-24T09:09:57.603Z,60.83
2023-11-24T09:12:59.645Z,61.01
2023-11-24T09:16:03.813Z,62.01
2023-11-24T09:19:05.909Z,62.38
2023-11-24T09:22:07.895Z,62.11
2023-11-24T09:25:10.290Z,62.25
2023-11-24T09:28:12.325Z,59.06
2023-11-24T09:31:14.453Z,56.77
2023-11-24T09:34:16.649Z,56.31
2023-11-24T09:37:18.516Z,59.04
2023-11-24T09:40:25.297Z,60.11
2023-11-24T09:43:27.685Z,62.10
2023-11-24T09:46:39.603Z,60.25
2023-11-24T09:49:48.699Z,62.99
2023-11-24T09:52:51.539Z,60.20
2023-11-24T09:55:53.756Z,58.97
2023-11-24T09:58:55.750Z,58.41
2023-11-24T10:02:01.837Z,57.97
2023-11-24T10:05:07.397Z,62.16
2023-11-24T10:08:10.575Z,62.50
2023-11-24T10:11:29.035Z,64.71
2023-11-24T10:14:31.522Z,65.25
2023-11-24T10:17:34.897Z,64.96
2023-11-24T10:20:36.921Z,66.03
2023-11-24T10:23:40.267Z,67.42
2023-11-24T10:26:45.273Z,66.72
2023-11-24T10:29:51.299Z,66.79
2023-11-24T10:32:53.417Z,67.17
2023-11-24T10:35:55.423Z,66.40
2023-11-24T10:39:03.538Z,65.58
2023-11-24T10:42:06.826Z,65.74
2023-11-24T10:45:12.494Z,65.94
2023-11-24T10:48:21.837Z,65.67
2023-11-24T10:51:36.908Z,64.73
2023-11-24T10:54:46.675Z,65.83
2023-11-24T10:57:48.710Z,66.11
2023-11-24T11:00:51.563Z,64.33
2023-11-24T11:03:58.488Z,65.16
2023-11-24T11:07:16.606Z,63.32
2023-11-24T11:10:27.125Z,64.76
2023-11-24T11:13:31.328Z,65.77
2023-11-24T11:16:33.892Z,66.03
2023-11-24T11:19:35.770Z,66.50
2023-11-24T11:22:39.151Z,67.88
2023-11-24T11:25:43.694Z,66.91
2023-11-24T11:28:47.541Z,66.64
2023-11-24T11:31:53.186Z,67.55
2023-11-24T11:34:55.257Z,68.14
2023-11-24T11:38:00.713Z,67.56
2023-11-24T11:41:05.232Z,66.97
2023-11-24T11:44:25.962Z,66.90
2023-11-24T11:47:29.853Z,67.18
2023-11-24T11:50:35.017Z,66.61
2023-11-24T11:53:40.140Z,66.07
2023-11-24T11:56:41.999Z,66.06
2023-11-24T11:59:44.565Z,65.15
2023-11-24T12:02:48.592Z,65.86
2023-11-24T12:05:52.891Z,65.66
2023-11-24T12:08:55.361Z,65.62
2023-11-24T12:11:57.469Z,66.24
2023-11-24T12:15:01.988Z,65.95
2023-11-24T12:18:06.678Z,65.21
2023-11-24T12:21:09.143Z,65.58
2023-11-24T12:24:15.450Z,65.82
2023-11-24T12:27:19.670Z,67.09
2023-11-24T12:30:23.715Z,66.21
2023-11-24T12:33:25.929Z,66.86
2023-11-24T12:36:28.068Z,67.45
2023-11-24T12:39:35.454Z,67.17
2023-11-24T12:42:39.155Z,67.59
2023-11-24T12:45:42.295Z,67.21
2023-11-24T12:48:46.439Z,67.76
2023-11-24T12:51:49.187Z,68.07
2023-11-24T12:54:51.395Z,66.34
2023-11-24T12:57:53.520Z,64.71
2023-11-24T13:00:58.214Z,64.61
2023-11-24T13:04:01.240Z,66.05
2023-11-24T13:07:05.734Z,65.16
2023-11-24T13:10:12.186Z,64.55
2023-11-24T13:13:15.488Z,65.61
2023-11-24T13:16:17.616Z,64.51
2023-11-24T13:19:21.012Z,61.88
2023-11-24T13:22:23.121Z,63.72
2023-11-24T13:25:30.344Z,63.69
2023-11-24T13:28:33.063Z,62.10
2023-11-24T13:31:42.083Z,62.12
2023-11-24T13:34:43.973Z,59.30
2023-11-24T13:37:50.822Z,60.12
2023-11-24T13:40:53.525Z,59.53
2023-11-24T13:43:55.477Z,60.52
2023-11-24T13:47:00.597Z,61.44
2023-11-24T13:50:05.395Z,61.71
2023-11-24T13:53:13.156Z,60.98
2023-11-24T13:56:15.930Z,61.48
2023-11-24T13:59:18.907Z,62.58
2023-11-24T14:02:21.178Z,63.38
2023-11-24T14:05:23.407Z,65.22
2023-11-24T14:08:25.698Z,65.92
2023-11-24T14:11:27.594Z,67.01
2023-11-24T14:14:30.206Z,67.20
2023-11-24T14:17:34.206Z,67.19
2023-11-24T14:20:37.838Z,69.04
2023-11-24T14:23:39.693Z,68.28
2023-11-24T14:26:45.949Z,70.81
2023-11-24T14:29:48.433Z,71.55
2023-11-24T14:32:50.578Z,73.03
2023-11-24T14:35:52.394Z,73.97
2023-11-24T14:38:57.914Z,74.79
2023-11-24T14:42:00.272Z,75.12
2023-11-24T14:45:02.378Z,75.35
2023-11-24T14:48:06.380Z,74.98
2023-11-24T14:51:12.186Z,74.23
2023-11-24T14:54:15.754Z,75.60
2023-11-24T14:57:17.679Z,74.90
2023-11-24T15:00:45.586Z,75.57
2023-11-24T15:03:49.802Z,75.42
2023-11-24T15:06:52.946Z,75.61
2023-11-24T15:09:56.167Z,76.39
2023-11-24T15:12:58.012Z,76.82
2023-11-24T15:16:00.050Z,78.30
2023-11-24T15:19:01.902Z,78.18
2023-11-24T15:22:09.894Z,79.21
2023-11-24T15:25:12.467Z,80.12
2023-11-24T15:28:21.402Z,79.84
2023-11-24T15:31:31.172Z,80.61
2023-11-24T15:34:35.911Z,81.35
2023-11-24T15:37:40.675Z,82.17
2023-11-24T15:40:43.581Z,82.68
2023-11-24T15:43:45.513Z,83.24
2023-11-24T15:46:47.401Z,84.88
2023-11-24T15:49:51.244Z,85.01
2023-11-24T15:52:53.418Z,85.27
2023-11-24T15:55:55.368Z,84.53
2023-11-24T15:59:00.224Z,84.57
2023-11-24T16:02:03.697Z,84.67
2023-11-24T16:05:07.801Z,83.99
2023-11-24T16:08:11.869Z,84.48
2023-11-24T16:11:13.906Z,84.60
2023-11-24T16:14:16.376Z,83.77
2023-11-24T16:17:18.260Z,84.07
2023-11-24T16:20:20.361Z,84.13
2023-11-24T16:23:22.181Z,84.71
2023-11-24T16:26:24.479Z,84.66
2023-11-24T16:29:26.942Z,83.72
2023-11-24T16:32:29.069Z,84.48
2023-11-24T16:35:30.978Z,82.99
2023-11-24T16:38:33.292Z,82.99
2023-11-24T16:41:38.425Z,82.65
2023-11-24T16:44:40.480Z,81.96
2023-11-24T16:47:43.857Z,82.19
2023-11-24T16:50:47.138Z,80.85
2023-11-24T16:53:49.025Z,80.39
2023-11-24T16:56:51.191Z,79.65
2023-11-24T16:59:53.941Z,78.60
2023-11-24T17:02:56.028Z,77.58
2023-11-24T17:05:58.306Z,77.56
2023-11-24T17:09:01.050Z,78.29
2023-11-24T17:12:03.380Z,78.94
2023-11-24T17:15:11.194Z,78.84
2023-11-24T17:18:14.072Z,79.80
2023-11-24T17:21:16.042Z,79.65
2023-11-24T17:24:18.031Z,80.50
2023-11-24T17:27:20.158Z,80.92
2023-11-24T17:30:25.072Z,80.52
2023-11-24T17:33:27.200Z,80.83
2023-11-24T17:36:29.850Z,79.09
2023-11-24T17:39:32.452Z,81.19
2023-11-24T17:42:35.513Z,81.59
2023-11-24T17:45:37.543Z,82.45
2023-11-24T17:48:39.534Z,82.92
2023-11-24T17:51:43.114Z,83.48
2023-11-24T17:54:45.366Z,84.07
2023-11-24T17:57:49.090Z,84.78
2023-11-24T18:00:51.186Z,85.16
2023-11-24T18:03:53.400Z,84.96
2023-11-24T18:06:55.680Z,84.25
2023-11-24T18:09:57.940Z,84.55
2023-11-24T18:13:00.631Z,85.38
2023-11-24T18:16:04.375Z,86.06
2023-11-24T18:19:06.441Z,86.50
2023-11-24T18:22:09.818Z,86.16
2023-11-24T18:25:13.347Z,86.56
2023-11-24T18:28:15.776Z,86.86
2023-11-24T18:31:18.176Z,87.43
2023-11-24T18:34:26.598Z,88.10
2023-11-24T18:37:30.173Z,88.82
2023-11-24T18:40:32.516Z,88.27
2023-11-24T18:43:39.820Z,88.22
2023-11-24T18:46:43.146Z,88.63
2023-11-24T18:49:48.322Z,88.42
2023-11-24T18:52:50.271Z,87.80
2023-11-24T18:55:52.203Z,87.96
2023-11-24T18:58:54.292Z,87.78
2023-11-24T19:01:58.357Z,88.04
2023-11-24T19:05:00.664Z,87.31
2023-11-24T19:08:02.649Z,86.87
2023-11-24T19:11:07.237Z,85.33
2023-11-24T19:14:09.294Z,83.93
2023-11-24T19:17:11.641Z,82.72
2023-11-24T19:20:14.293Z,81.40
2023-11-24T19:23:16.182Z,79.61
2023-11-24T19:26:18.150Z,80.01
2023-11-24T19:29:20.387Z,78.32
2023-11-24T19:32:23.139Z,79.02
2023-11-24T19:35:25.767Z,77.65
2023-11-24T19:38:27.697Z,76.10
2023-11-24T19:41:29.986Z,75.21
2023-11-24T19:44:31.932Z,73.47
2023-11-24T19:47:33.981Z,72.50
2023-11-24T19:50:35.929Z,71.13
2023-11-24T19:53:37.835Z,69.42
2023-11-24T19:56:42.021Z,69.45
2023-11-24T19:59:44.913Z,68.98
2023-11-24T20:02:50.820Z,67.25
2023-11-24T20:05:55.816Z,67.22
2023-11-24T20:08:57.753Z,66.46
2023-11-24T20:11:59.710Z,65.75
2023-11-24T20:15:01.757Z,66.00
2023-11-24T20:18:04.363Z,65.83
2023-11-24T20:21:06.864Z,66.32
2023-11-24T20:24:11.227Z,65.17
2023-11-24T20:27:13.330Z,66.30
2023-11-24T20:30:15.707Z,65.32
2023-11-24T20:33:21.150Z,65.78
2023-11-24T20:36:23.417Z,63.67
2023-11-24T20:39:25.314Z,64.02
2023-11-24T20:42:27.562Z,62.95
2023-11-24T20:45:30.197Z,63.01
2023-11-24T20:48:32.089Z,64.42
2023-11-24T20:51:34.064Z,63.10
2023-11-24T20:54:36.165Z,64.07
2023-11-24T20:57:38.168Z,64.46
2023-11-24T21:00:40.277Z,63.90
2023-11-24T21:03:42.762Z,64.16
2023-11-24T21:06:45.655Z,63.78
2023-11-24T21:09:47.698Z,64.15
2023-11-24T21:12:49.677Z,63.65
2023-11-24T21:15:51.756Z,61.76
2023-11-24T21:18:54.014Z,60.96
2023-11-24T21:21:56.078Z,60.08
2023-11-24T21:24:59.681Z,60.83
2023-11-24T21:28:01.790Z,61.17
2023-11-24T21:31:03.729Z,60.68
2023-11-24T21:34:05.837Z,60.50
2023-11-24T21:37:09.435Z,61.93
2023-11-24T21:40:14.786Z,61.70
2023-11-24T21:43:17.130Z,62.17
2023-11-24T21:46:22.850Z,64.19
2023-11-24T21:49:25.077Z,64.02
2023-11-24T21:52:27.814Z,63.70
2023-11-24T21:55:32.924Z,64.44
2023-11-24T21:58:38.131Z,63.99
2023-11-24T22:01:40.329Z,64.44
2023-11-24T22:04:42.627Z,63.65
2023-11-24T22:07:44.805Z,62.82
2023-11-24T22:10:47.161Z,62.51
2023-11-24T22:13:49.246Z,61.16
2023-11-24T22:16:52.112Z,62.37
2023-11-24T22:19:54.907Z,61.80
2023-11-24T22:22:56.803Z,62.24
2023-11-24T22:25:59.268Z,61.70
2023-11-24T22:29:04.126Z,60.60
2023-11-24T22:32:06.864Z,61.15
2023-11-24T22:35:09.291Z,60.76
2023-11-24T22:38:11.228Z,62.18
2023-11-24T22:41:20.252Z,62.68
2023-11-24T22:44:22.081Z,60.69
2023-11-24T22:47:25.306Z,62.01
2023-11-24T22:50:28.462Z,61.75
2023-11-24T22:53:32.489Z,61.98
2023-11-24T22:56:34.473Z,63.63
2023-11-24T22:59:36.375Z,62.93
2023-11-24T23:02:39.223Z,64.42
2023-11-24T23:05:43.389Z,63.46
2023-11-24T23:08:46.887Z,65.23
2023-11-24T23:11:49.205Z,66.06
2023-11-24T23:14:52.103Z,66.46
2023-11-24T23:17:54.316Z,67.97
2023-11-24T23:20:56.589Z,67.71
2023-11-24T23:23:58.996Z,67.32
2023-11-24T23:27:09.663Z,70.17
2023-11-24T23:30:15.227Z,69.96
2023-11-24T23:33:18.572Z,71.75
2023-11-24T23:36:20.712Z,71.23
2023-11-24T23:39:22.606Z,70.84
2023-11-24T23:42:28.178Z,69.98
2023-11-24T23:45:30.062Z,70.53
2023-11-24T23:48:33.300Z,72.27
2023-11-24T23:51:36.006Z,72.58
2023-11-24T23:54:37.898Z,72.38
2023-11-24T23:57:39.845Z,73.05
